Terminal Aerodrome Forecast
Issued by NWS Sioux Falls, SD

Home | Current Version | Previous Version | Text Only | Print | Product List | Glossary On
Versions: 1 2 3 4 5 6 7 8 9 10 11 12 13 14 15 16 17 18 19 20 21 22 23 24
000
FTUS43 KFSD 021733
TAFSUX
TAF
KSUX 021733Z 0218/0318 15015G22KT P6SM BKN090
     FM030700 15014G20KT P6SM OVC025
     FM030900 16012G18KT 4SM -FZDZ BR OVC012
     FM031200 17008KT 3SM -SN BR OVC012=

USA.gov is the U.S. government's official web portal to all federal, state and local government web resources and services.